createdAt,value
2022-12-08T00:01:33.592Z,0.40
2022-12-08T00:04:55.733Z,0.30
2022-12-08T00:08:16.565Z,0.43
2022-12-08T00:11:19.454Z,0.40
2022-12-08T00:14:24.853Z,0.30
2022-12-08T00:17:26.918Z,0.20
2022-12-08T00:20:29.204Z,0.35
2022-12-08T00:23:31.282Z,0.40
2022-12-08T00:26:33.345Z,0.30
2022-12-08T00:29:36.517Z,0.30
2022-12-08T00:32:38.543Z,0.30
2022-12-08T00:35:43.192Z,0.30
2022-12-08T00:38:47.223Z,0.30
2022-12-08T00:42:07.830Z,0.22
2022-12-08T00:45:10.597Z,0.30
2022-12-08T00:48:12.627Z,0.45
2022-12-08T00:51:14.659Z,0.35
2022-12-08T00:54:17.317Z,0.30
2022-12-08T00:57:19.349Z,0.30
2022-12-08T01:00:21.559Z,0.20
2022-12-08T01:03:23.709Z,0.30
2022-12-08T01:06:25.817Z,0.30
2022-12-08T01:09:27.897Z,0.40
2022-12-08T01:12:30.498Z,0.20
2022-12-08T01:15:32.553Z,0.30
2022-12-08T01:18:34.697Z,0.30
2022-12-08T01:21:36.848Z,0.30
2022-12-08T01:24:39.045Z,0.35
2022-12-08T01:27:41.111Z,0.40
2022-12-08T01:30:43.260Z,0.20
2022-12-08T01:33:45.902Z,0.30
2022-12-08T01:36:48.097Z,0.40
2022-12-08T01:39:50.155Z,0.30
2022-12-08T01:42:52.707Z,0.20
2022-12-08T01:45:54.853Z,0.35
2022-12-08T01:49:01.571Z,0.25
2022-12-08T01:52:32.513Z,0.40
2022-12-08T01:55:42.662Z,0.30
2022-12-08T01:58:48.540Z,0.25
2022-12-08T02:01:51.365Z,0.20
2022-12-08T02:04:53.499Z,0.20
2022-12-08T02:07:55.812Z,0.30
2022-12-08T02:10:57.953Z,0.52
2022-12-08T02:14:00.328Z,0.30
2022-12-08T02:17:32.001Z,0.40
2022-12-08T02:20:53.440Z,0.22
2022-12-08T02:24:29.954Z,0.20
2022-12-08T02:27:44.302Z,0.30
2022-12-08T02:31:14.657Z,0.28
2022-12-08T02:34:38.665Z,0.20
2022-12-08T02:37:55.317Z,0.30
2022-12-08T02:41:29.292Z,0.40
2022-12-08T02:45:12.399Z,0.20
2022-12-08T02:48:14.826Z,0.40
2022-12-08T02:51:16.893Z,0.30
2022-12-08T02:54:18.943Z,0.30
2022-12-08T02:57:48.623Z,0.20
2022-12-08T03:01:17.170Z,0.30
2022-12-08T03:05:07.880Z,0.30
2022-12-08T03:08:33.861Z,0.30
2022-12-08T03:11:58.809Z,0.30
2022-12-08T03:15:06.280Z,0.30
2022-12-08T03:21:10.948Z,0.30
2022-12-08T03:24:13.081Z,0.40
2022-12-08T03:27:23.352Z,0.20
2022-12-08T03:30:25.404Z,0.30
2022-12-08T03:33:34.020Z,0.30
2022-12-08T03:36:36.485Z,0.38
2022-12-08T03:39:38.575Z,0.30
2022-12-08T03:42:43.322Z,0.38
2022-12-08T03:45:45.393Z,0.38
2022-12-08T03:48:47.526Z,0.17
2022-12-08T03:51:49.976Z,0.35
2022-12-08T03:54:52.072Z,0.30
2022-12-08T03:57:54.143Z,0.40
2022-12-08T04:00:56.209Z,0.30
2022-12-08T04:03:58.304Z,0.28
2022-12-08T04:07:00.347Z,0.35
2022-12-08T04:10:02.581Z,0.30
2022-12-08T04:13:04.840Z,0.30
2022-12-08T04:16:07.850Z,0.40
2022-12-08T04:19:10.066Z,0.30
2022-12-08T04:22:12.145Z,0.30
2022-12-08T04:25:14.271Z,0.20
2022-12-08T04:28:16.575Z,0.25
2022-12-08T04:31:18.673Z,0.40
2022-12-08T04:34:20.733Z,0.30
2022-12-08T04:37:22.797Z,0.28
2022-12-08T04:40:24.957Z,0.30
2022-12-08T04:43:27.025Z,0.40
2022-12-08T04:46:29.120Z,0.47
2022-12-08T04:49:31.176Z,0.30
2022-12-08T04:52:33.253Z,0.30
2022-12-08T04:55:37.745Z,0.30
2022-12-08T04:58:40.029Z,0.25
2022-12-08T05:01:42.147Z,0.22
2022-12-08T05:04:44.365Z,0.30
2022-12-08T05:07:46.460Z,0.20
2022-12-08T05:10:48.556Z,0.30
2022-12-08T05:13:50.669Z,0.40
2022-12-08T05:16:52.737Z,0.40
2022-12-08T05:19:54.819Z,0.20
2022-12-08T05:22:56.880Z,0.30
2022-12-08T05:25:58.940Z,0.35
2022-12-08T05:29:01.046Z,0.40
2022-12-08T05:32:03.158Z,1.00
2022-12-08T05:35:05.701Z,0.30
2022-12-08T05:38:07.780Z,0.32
2022-12-08T05:41:10.930Z,0.40
2022-12-08T05:44:12.997Z,0.35
2022-12-08T05:47:15.059Z,0.50
2022-12-08T05:50:17.270Z,0.60
2022-12-08T05:53:20.027Z,0.50
2022-12-08T05:56:22.494Z,0.50
2022-12-08T05:59:24.608Z,0.40
2022-12-08T06:02:26.962Z,0.38
2022-12-08T06:05:29.129Z,0.47
2022-12-08T06:08:31.280Z,0.40
2022-12-08T06:11:33.639Z,0.40
2022-12-08T06:14:35.701Z,0.30
2022-12-08T06:17:37.750Z,0.30
2022-12-08T06:20:39.779Z,0.47
2022-12-08T06:23:42.120Z,0.30
2022-12-08T06:26:44.217Z,0.32
2022-12-08T06:29:46.341Z,0.30
2022-12-08T06:32:48.432Z,0.45
2022-12-08T06:35:50.490Z,0.38
2022-12-08T06:38:52.578Z,0.30
2022-12-08T06:42:13.248Z,0.30
2022-12-08T06:45:16.656Z,0.32
2022-12-08T06:48:18.995Z,0.30
2022-12-08T06:51:22.820Z,0.30
2022-12-08T06:54:24.893Z,0.20
2022-12-08T06:57:26.932Z,0.30
2022-12-08T07:00:29.040Z,0.10
2022-12-08T07:03:31.122Z,0.30
2022-12-08T07:06:33.160Z,0.30
2022-12-08T07:09:35.231Z,0.40
2022-12-08T07:12:38.065Z,0.20
2022-12-08T07:15:40.134Z,0.30
2022-12-08T07:18:43.078Z,0.30
2022-12-08T07:21:45.132Z,0.38
2022-12-08T07:24:47.211Z,0.20
2022-12-08T07:27:51.491Z,0.20
2022-12-08T07:30:53.606Z,0.30
2022-12-08T07:33:56.445Z,0.30
2022-12-08T07:36:58.488Z,0.20
2022-12-08T07:40:00.595Z,0.30
2022-12-08T07:43:02.698Z,0.30
2022-12-08T07:46:04.928Z,0.20
2022-12-08T07:49:06.997Z,0.30
2022-12-08T07:52:09.036Z,0.30
2022-12-08T07:55:11.086Z,0.30
2022-12-08T07:58:13.149Z,0.20
2022-12-08T08:01:25.000Z,0.43
2022-12-08T08:04:27.304Z,0.20
2022-12-08T08:07:31.434Z,0.25
2022-12-08T08:10:33.528Z,0.30
2022-12-08T08:13:35.672Z,0.20
2022-12-08T08:16:38.764Z,0.20
2022-12-08T08:19:41.102Z,0.40
2022-12-08T08:22:43.147Z,0.28
2022-12-08T08:25:45.198Z,0.28
2022-12-08T08:28:48.262Z,0.20
2022-12-08T08:31:50.331Z,0.35
2022-12-08T08:34:52.435Z,0.20
2022-12-08T08:37:54.501Z,0.30
2022-12-08T08:40:57.620Z,0.63
2022-12-08T08:43:59.666Z,0.30
2022-12-08T08:47:01.730Z,0.20
2022-12-08T08:50:04.622Z,0.30
2022-12-08T08:53:06.936Z,0.10
2022-12-08T08:56:14.589Z,0.20
2022-12-08T08:59:16.657Z,0.20
2022-12-08T09:02:19.284Z,0.30
2022-12-08T09:05:21.410Z,0.30
2022-12-08T09:08:23.972Z,0.22
2022-12-08T09:11:26.099Z,0.20
2022-12-08T09:14:28.201Z,0.32
2022-12-08T09:17:30.253Z,0.20
2022-12-08T09:20:33.222Z,0.30
2022-12-08T09:23:36.009Z,0.40
2022-12-08T09:26:38.198Z,0.30
2022-12-08T09:29:40.251Z,0.20
2022-12-08T09:32:42.312Z,0.30
2022-12-08T09:35:44.373Z,0.38
2022-12-08T09:38:46.700Z,0.50
2022-12-08T09:41:58.599Z,0.38
2022-12-08T09:45:12.984Z,0.52
2022-12-08T09:48:20.674Z,1.20
2022-12-08T09:51:27.786Z,0.50
2022-12-08T09:54:36.730Z,0.40
2022-12-08T09:57:38.797Z,0.40
2022-12-08T10:00:40.903Z,0.43
2022-12-08T10:03:43.113Z,0.30
2022-12-08T10:06:52.137Z,0.20
2022-12-08T10:10:06.417Z,0.45
2022-12-08T10:13:29.692Z,0.38
2022-12-08T10:16:39.034Z,0.30
2022-12-08T10:19:41.453Z,0.25
2022-12-08T10:22:45.043Z,0.30
2022-12-08T10:25:52.347Z,0.40
2022-12-08T10:29:01.260Z,0.22
2022-12-08T10:32:10.267Z,1.05
2022-12-08T10:35:14.826Z,0.20
2022-12-08T10:38:26.643Z,0.30
2022-12-08T10:41:28.746Z,0.40
2022-12-08T10:44:30.907Z,0.30
2022-12-08T10:47:43.790Z,0.50
2022-12-08T10:50:58.253Z,0.32
2022-12-08T10:54:00.520Z,0.38
2022-12-08T10:57:02.753Z,0.90
2022-12-08T11:00:13.753Z,1.35
2022-12-08T11:03:33.043Z,1.10
2022-12-08T11:06:39.437Z,1.58
2022-12-08T11:09:48.991Z,0.80
2022-12-08T11:12:51.150Z,0.80
2022-12-08T11:15:55.008Z,0.90
2022-12-08T11:18:58.523Z,1.10
2022-12-08T11:22:00.601Z,0.90
2022-12-08T11:25:08.586Z,1.90
2022-12-08T11:28:10.688Z,1.13
2022-12-08T11:31:49.989Z,1.40
2022-12-08T11:35:00.401Z,1.27
2022-12-08T11:38:23.186Z,0.80
2022-12-08T11:41:33.690Z,1.67
2022-12-08T11:44:47.403Z,1.10
2022-12-08T11:48:13.749Z,1.92
2022-12-08T11:51:38.047Z,1.27
2022-12-08T11:55:25.318Z,1.42
2022-12-08T11:58:54.822Z,1.40
2022-12-08T12:02:01.470Z,1.70
2022-12-08T12:05:06.402Z,1.33
2022-12-08T12:08:40.116Z,1.40
2022-12-08T12:12:13.240Z,0.88
2022-12-08T12:15:21.025Z,0.40
2022-12-08T12:18:46.584Z,0.40
2022-12-08T12:22:16.380Z,0.60
2022-12-08T12:25:23.720Z,0.65
2022-12-08T12:28:36.226Z,1.10
2022-12-08T12:31:43.477Z,0.80
2022-12-08T12:34:55.908Z,0.50
2022-12-08T12:38:25.758Z,0.70
2022-12-08T12:42:02.475Z,0.50
2022-12-08T12:45:16.759Z,0.50
2022-12-08T12:48:24.181Z,0.40
2022-12-08T12:51:41.190Z,0.80
2022-12-08T12:55:03.707Z,0.60
2022-12-08T12:58:28.641Z,0.80
2022-12-08T13:01:44.877Z,0.70
2022-12-08T13:05:23.468Z,0.60
2022-12-08T13:08:26.671Z,0.43
2022-12-08T13:11:28.807Z,0.40
2022-12-08T13:14:44.482Z,0.40
2022-12-08T13:17:47.526Z,0.40
2022-12-08T13:21:24.888Z,0.50
2022-12-08T13:24:34.624Z,0.88
2022-12-08T13:27:36.767Z,0.40
2022-12-08T13:30:58.897Z,0.65
2022-12-08T13:34:01.456Z,0.70
2022-12-08T13:37:12.818Z,0.55
2022-12-08T13:40:17.077Z,0.50
2022-12-08T13:47:37.187Z,0.60
2022-12-08T13:57:45.783Z,0.52
2022-12-08T14:01:17.914Z,0.80
2022-12-08T14:04:42.596Z,0.47
2022-12-08T14:07:43.631Z,0.80
2022-12-08T14:10:45.757Z,1.00
2022-12-08T14:13:47.796Z,0.70
2022-12-08T14:16:56.164Z,0.60
2022-12-08T14:20:12.088Z,0.80
2022-12-08T14:23:16.628Z,1.05
2022-12-08T14:26:18.747Z,0.88
2022-12-08T14:29:48.999Z,1.35
2022-12-08T14:33:02.203Z,1.00
2022-12-08T14:36:04.401Z,1.60
2022-12-08T14:39:06.493Z,1.63
2022-12-08T14:42:25.199Z,0.90
2022-12-08T14:45:27.359Z,0.85
2022-12-08T14:48:34.791Z,1.00
2022-12-08T14:54:39.664Z,0.75
2022-12-08T14:57:42.702Z,1.42
2022-12-08T15:00:47.974Z,1.02
2022-12-08T15:03:51.531Z,1.08
2022-12-08T15:07:28.074Z,0.75
2022-12-08T15:10:32.273Z,0.77
2022-12-08T15:13:34.392Z,0.82
2022-12-08T15:16:36.480Z,0.90
2022-12-08T15:19:39.995Z,0.75
2022-12-08T15:22:42.082Z,0.73
2022-12-08T15:25:44.209Z,0.70
2022-12-08T15:28:46.301Z,1.30
2022-12-08T15:31:48.825Z,1.00
2022-12-08T15:34:51.040Z,0.70
2022-12-08T15:37:53.323Z,0.60
2022-12-08T15:40:56.306Z,0.70
2022-12-08T15:43:58.506Z,0.65
2022-12-08T15:47:00.801Z,0.60
2022-12-08T15:50:04.841Z,0.45
2022-12-08T15:53:10.510Z,0.52
2022-12-08T15:56:27.526Z,1.15
2022-12-08T15:59:31.424Z,1.27
2022-12-08T16:02:56.226Z,0.38
2022-12-08T16:06:39.043Z,0.80
2022-12-08T16:09:38.618Z,1.10
2022-12-08T16:13:55.524Z,0.80
2022-12-08T16:16:27.849Z,0.70
2022-12-08T16:19:29.937Z,0.80
2022-12-08T16:26:20.404Z,0.80
2022-12-08T16:29:19.764Z,0.82
2022-12-08T16:32:22.007Z,0.70
2022-12-08T16:35:24.218Z,0.90
2022-12-08T16:38:26.345Z,1.30
2022-12-08T16:41:46.907Z,0.80
2022-12-08T16:44:49.002Z,0.88
2022-12-08T16:47:52.810Z,1.15
2022-12-08T16:50:54.953Z,0.90
2022-12-08T16:53:58.538Z,1.23
2022-12-08T16:57:00.755Z,1.10
2022-12-08T17:00:04.389Z,0.93
2022-12-08T17:03:10.256Z,1.02
2022-12-08T17:06:14.385Z,0.90
2022-12-08T17:09:16.550Z,0.98
2022-12-08T17:12:18.677Z,0.98
2022-12-08T17:15:23.463Z,1.88
2022-12-08T17:18:25.698Z,1.05
2022-12-08T17:21:27.813Z,1.30
2022-12-08T17:24:30.577Z,0.90
2022-12-08T17:27:32.766Z,1.20
2022-12-08T17:30:34.898Z,1.05
2022-12-08T17:33:37.139Z,0.88
2022-12-08T17:36:39.272Z,1.15
2022-12-08T17:39:41.473Z,0.95
2022-12-08T17:42:43.782Z,1.10
2022-12-08T17:45:47.876Z,1.27
2022-12-08T17:48:52.893Z,1.00
2022-12-08T17:51:56.177Z,1.30
2022-12-08T17:54:58.260Z,1.83
2022-12-08T17:58:00.657Z,1.20
2022-12-08T18:01:10.935Z,0.73
2022-12-08T18:04:13.229Z,0.90
2022-12-08T18:07:15.402Z,0.88
2022-12-08T18:10:17.786Z,0.93
2022-12-08T18:13:20.155Z,1.33
2022-12-08T18:16:24.630Z,1.00
2022-12-08T18:19:27.882Z,0.80
2022-12-08T18:22:30.035Z,0.95
2022-12-08T18:25:32.167Z,1.20
2022-12-08T18:28:34.314Z,1.00
2022-12-08T18:31:37.643Z,0.80
2022-12-08T18:34:39.729Z,1.40
2022-12-08T18:37:43.179Z,0.88
2022-12-08T18:40:45.416Z,0.95
2022-12-08T18:43:47.569Z,1.02
2022-12-08T18:46:49.801Z,0.82
2022-12-08T18:49:52.037Z,1.30
2022-12-08T18:52:54.289Z,1.73
2022-12-08T18:55:56.458Z,0.90
2022-12-08T18:59:03.570Z,0.85
2022-12-08T19:02:06.275Z,0.93
2022-12-08T19:05:11.349Z,1.02
2022-12-08T19:08:13.574Z,1.60
2022-12-08T19:11:26.575Z,0.90
2022-12-08T19:14:30.450Z,0.90
2022-12-08T19:17:32.630Z,0.90
2022-12-08T19:20:34.760Z,0.80
2022-12-08T19:23:36.866Z,1.20
2022-12-08T19:26:39.040Z,1.08
2022-12-08T19:29:41.104Z,0.90
2022-12-08T19:32:43.355Z,0.80
2022-12-08T19:35:52.170Z,1.40
2022-12-08T19:39:13.431Z,1.00
2022-12-08T19:42:36.057Z,1.00
2022-12-08T19:45:38.517Z,0.75
2022-12-08T19:48:40.777Z,0.90
2022-12-08T19:51:42.922Z,1.13
2022-12-08T19:54:45.077Z,0.80
2022-12-08T19:57:47.297Z,0.70
2022-12-08T20:00:49.630Z,0.95
2022-12-08T20:03:51.811Z,1.00
2022-12-08T20:06:55.355Z,1.13
2022-12-08T20:09:57.489Z,1.33
2022-12-08T20:13:18.109Z,2.38
2022-12-08T20:16:20.310Z,1.70
2022-12-08T20:19:22.647Z,2.20
2022-12-08T20:22:24.753Z,1.10
2022-12-08T20:25:26.826Z,1.08
2022-12-08T20:28:28.953Z,1.17
2022-12-08T20:31:31.629Z,1.70
2022-12-08T20:34:34.636Z,1.40
2022-12-08T20:37:36.713Z,1.23
2022-12-08T20:40:44.006Z,0.80
2022-12-08T20:43:49.606Z,1.10
2022-12-08T20:46:51.754Z,1.45
2022-12-08T20:49:53.900Z,0.88
2022-12-08T20:52:56.251Z,1.35
2022-12-08T20:55:58.614Z,1.00
2022-12-08T20:59:01.015Z,1.15
2022-12-08T21:02:03.275Z,1.20
2022-12-08T21:05:06.422Z,0.90
2022-12-08T21:08:08.770Z,0.90
2022-12-08T21:11:11.734Z,1.00
2022-12-08T21:14:14.023Z,1.10
2022-12-08T21:17:16.444Z,1.02
2022-12-08T21:20:18.983Z,1.08
2022-12-08T21:23:21.189Z,0.80
2022-12-08T21:26:26.034Z,0.90
2022-12-08T21:29:28.614Z,1.05
2022-12-08T21:32:31.000Z,0.60
2022-12-08T21:35:33.440Z,0.73
2022-12-08T21:38:36.591Z,0.90
2022-12-08T21:41:57.947Z,0.95
2022-12-08T21:45:00.147Z,0.93
2022-12-08T21:48:10.332Z,0.60
2022-12-08T21:51:13.661Z,0.85
2022-12-08T21:54:19.061Z,1.17
2022-12-08T21:57:21.611Z,0.82
2022-12-08T22:00:23.947Z,0.80
2022-12-08T22:03:28.124Z,1.15
2022-12-08T22:06:30.744Z,0.80
2022-12-08T22:09:32.905Z,0.63
2022-12-08T22:12:36.141Z,0.50
2022-12-08T22:15:38.296Z,0.80
2022-12-08T22:18:40.769Z,0.50
2022-12-08T22:21:42.909Z,0.57
2022-12-08T22:24:45.142Z,0.57
2022-12-08T22:27:47.191Z,0.50
2022-12-08T22:30:49.247Z,0.68
2022-12-08T22:33:51.470Z,0.50
2022-12-08T22:36:53.748Z,0.60
2022-12-08T22:39:55.816Z,0.52
2022-12-08T22:42:57.989Z,0.60
2022-12-08T22:46:00.149Z,0.40
2022-12-08T22:49:02.594Z,0.45
2022-12-08T22:52:04.987Z,0.70
2022-12-08T22:55:08.077Z,0.73
2022-12-08T22:58:11.522Z,0.77
2022-12-08T23:01:39.650Z,1.00
2022-12-08T23:04:41.955Z,0.45
2022-12-08T23:07:44.233Z,0.68
2022-12-08T23:10:46.831Z,0.60
2022-12-08T23:13:49.242Z,0.70
2022-12-08T23:16:51.387Z,0.90
2022-12-08T23:19:55.260Z,0.73
2022-12-08T23:22:57.326Z,0.60
2022-12-08T23:25:59.396Z,1.05
2022-12-08T23:29:01.737Z,0.60
2022-12-08T23:32:04.556Z,0.88
2022-12-08T23:35:07.626Z,0.52
2022-12-08T23:38:09.673Z,0.82
2022-12-08T23:41:13.195Z,0.50
2022-12-08T23:44:15.384Z,0.70
2022-12-08T23:47:17.506Z,0.50
2022-12-08T23:50:19.656Z,0.63
2022-12-08T23:53:21.735Z,0.60
2022-12-08T23:56:29.877Z,0.40
2022-12-08T23:59:32.592Z,0.45
